createdAt,value
2019-03-21T00:00:49.448Z,21.33
2019-03-21T00:03:19.926Z,19.10
2019-03-21T00:05:50.627Z,19.60
2019-03-21T00:08:21.726Z,20.87
2019-03-21T00:11:19.170Z,20.63
2019-03-21T00:13:50.588Z,19.10
2019-03-21T00:16:22.138Z,19.00
2019-03-21T00:18:52.731Z,21.53
2019-03-21T00:21:23.580Z,21.40
2019-03-21T00:23:54.826Z,21.73
2019-03-21T00:26:25.559Z,19.07
2019-03-21T00:28:55.789Z,19.47
2019-03-21T00:31:26.436Z,19.73
2019-03-21T00:33:56.598Z,19.07
2019-03-21T00:36:26.962Z,18.10
2019-03-21T00:38:57.287Z,18.47
2019-03-21T00:41:27.625Z,19.13
2019-03-21T00:43:58.070Z,18.40
2019-03-21T00:46:28.139Z,18.03
2019-03-21T00:48:58.372Z,17.17
2019-03-21T00:51:28.670Z,17.00
2019-03-21T00:53:59.073Z,16.80
2019-03-21T00:56:29.729Z,16.17
2019-03-21T00:58:59.932Z,16.53
2019-03-21T01:01:48.941Z,14.93
2019-03-21T01:04:19.255Z,14.77
2019-03-21T01:06:49.898Z,14.97
2019-03-21T01:09:20.258Z,14.90
2019-03-21T01:11:51.234Z,15.93
2019-03-21T01:14:29.708Z,15.37
2019-03-21T01:16:54.320Z,14.73
2019-03-21T01:19:24.759Z,13.00
2019-03-21T01:21:55.194Z,14.30
2019-03-21T01:24:26.189Z,15.63
2019-03-21T01:26:57.253Z,14.83
2019-03-21T01:29:27.864Z,14.60
2019-03-21T01:31:58.119Z,14.60
2019-03-21T01:34:28.630Z,14.83
2019-03-21T01:36:58.893Z,15.50
2019-03-21T01:39:29.050Z,14.27
2019-03-21T01:41:59.351Z,14.13
2019-03-21T01:44:40.639Z,13.40
2019-03-21T01:47:02.314Z,15.07
2019-03-21T01:49:32.601Z,14.10
2019-03-21T01:52:03.290Z,14.70
2019-03-21T01:54:33.604Z,14.20
2019-03-21T01:57:04.421Z,14.67
2019-03-21T01:59:35.318Z,14.23
2019-03-21T02:02:05.682Z,14.60
2019-03-21T02:04:35.917Z,14.40
2019-03-21T02:07:06.098Z,13.90
2019-03-21T02:09:36.352Z,14.30
2019-03-21T02:12:07.071Z,13.47
2019-03-21T02:14:37.316Z,13.80
2019-03-21T02:17:07.933Z,13.30
2019-03-21T02:19:38.155Z,13.73
2019-03-21T02:22:08.733Z,14.43
2019-03-21T02:24:40.873Z,12.90
2019-03-21T02:27:11.026Z,13.53
2019-03-21T02:29:41.418Z,14.50
2019-03-21T02:32:11.698Z,13.97
2019-03-21T02:34:42.627Z,14.20
2019-03-21T02:37:12.931Z,13.50
2019-03-21T02:39:58.282Z,14.17
2019-03-21T02:42:15.670Z,12.80
2019-03-21T02:44:45.980Z,13.70
2019-03-21T02:47:16.237Z,13.53
2019-03-21T02:49:47.684Z,13.03
2019-03-21T02:52:18.549Z,12.63
2019-03-21T02:54:48.829Z,12.27
2019-03-21T02:57:20.053Z,12.97
2019-03-21T02:59:50.192Z,13.47
2019-03-21T03:02:20.792Z,12.33
2019-03-21T03:04:51.522Z,12.87
2019-03-21T03:07:21.752Z,13.00
2019-03-21T03:09:51.956Z,10.83
2019-03-21T03:12:22.197Z,12.83
2019-03-21T03:14:52.794Z,12.77
2019-03-21T03:17:23.052Z,12.50
2019-03-21T03:19:53.660Z,11.93
2019-03-21T03:22:24.312Z,12.17
2019-03-21T03:24:54.558Z,12.37
2019-03-21T03:27:24.750Z,12.70
2019-03-21T03:29:55.172Z,11.77
2019-03-21T03:32:25.822Z,11.60
2019-03-21T03:34:56.433Z,12.40
2019-03-21T03:37:26.613Z,11.83
2019-03-21T03:39:57.266Z,12.97
2019-03-21T03:42:27.899Z,13.80
2019-03-21T03:44:58.781Z,11.93
2019-03-21T03:47:28.925Z,12.23
2019-03-21T03:49:59.069Z,12.00
2019-03-21T03:52:30.490Z,11.53
2019-03-21T03:55:00.785Z,12.97
2019-03-21T03:57:31.249Z,12.50
2019-03-21T04:00:01.410Z,13.67
2019-03-21T04:02:31.762Z,12.00
2019-03-21T04:05:02.350Z,13.17
2019-03-21T04:07:32.655Z,12.37
2019-03-21T04:10:03.278Z,13.23
2019-03-21T04:12:33.761Z,12.97
2019-03-21T04:15:04.484Z,13.10
2019-03-21T04:17:35.176Z,13.20
2019-03-21T04:20:05.990Z,11.80
2019-03-21T04:22:36.749Z,11.60
2019-03-21T04:25:08.148Z,12.00
2019-03-21T04:27:38.870Z,11.50
2019-03-21T04:30:11.040Z,12.53
2019-03-21T04:32:41.653Z,12.17
2019-03-21T04:35:12.525Z,11.87
2019-03-21T04:37:42.937Z,13.13
2019-03-21T04:40:13.901Z,12.83
2019-03-21T04:42:44.177Z,12.40
2019-03-21T04:45:16.955Z,11.77
2019-03-21T04:47:47.593Z,12.87
2019-03-21T04:50:20.681Z,12.10
2019-03-21T04:52:51.283Z,11.60
2019-03-21T04:55:22.379Z,12.20
2019-03-21T04:57:52.836Z,11.80
2019-03-21T05:00:25.684Z,11.60
2019-03-21T05:02:58.367Z,11.93
2019-03-21T05:05:28.736Z,12.40
2019-03-21T05:07:59.048Z,13.00
2019-03-21T05:10:32.274Z,13.40
2019-03-21T05:13:02.836Z,13.37
2019-03-21T05:15:37.735Z,12.67
2019-03-21T05:18:11.056Z,13.27
2019-03-21T05:20:41.976Z,13.50
2019-03-21T05:23:12.418Z,12.40
2019-03-21T05:25:42.745Z,13.37
2019-03-21T05:28:13.337Z,13.37
2019-03-21T05:30:49.964Z,13.43
2019-03-21T05:33:20.328Z,12.40
2019-03-21T05:35:51.018Z,13.00
2019-03-21T05:38:21.718Z,14.80
2019-03-21T05:40:52.202Z,12.60
2019-03-21T05:43:29.022Z,12.53
2019-03-21T05:45:59.295Z,14.27
2019-03-21T05:48:29.640Z,12.63
2019-03-21T05:50:59.996Z,12.67
2019-03-21T05:53:30.190Z,12.27
2019-03-21T05:56:01.236Z,11.73
2019-03-21T05:58:31.535Z,12.30
2019-03-21T06:01:01.991Z,11.80
2019-03-21T06:03:35.281Z,12.30
2019-03-21T06:06:12.524Z,11.60
2019-03-21T06:08:43.389Z,11.50
2019-03-21T06:11:13.781Z,11.90
2019-03-21T06:13:44.509Z,11.23
2019-03-21T06:16:14.796Z,11.07
2019-03-21T06:19:10.266Z,11.40
2019-03-21T06:22:01.784Z,10.10
2019-03-21T06:25:02.931Z,12.57
2019-03-21T06:27:33.326Z,11.23
2019-03-21T06:30:03.818Z,11.30
2019-03-21T06:32:34.151Z,10.70
2019-03-21T06:35:04.739Z,10.30
2019-03-21T06:37:35.257Z,10.77
2019-03-21T06:40:05.979Z,11.27
2019-03-21T06:42:38.870Z,11.20
2019-03-21T06:45:08.757Z,11.00
2019-03-21T06:47:39.098Z,11.27
2019-03-21T06:50:09.549Z,10.23
2019-03-21T06:52:40.219Z,10.57
2019-03-21T06:55:10.779Z,10.70
2019-03-21T06:57:41.040Z,10.10
2019-03-21T07:00:12.185Z,10.40
2019-03-21T07:02:42.664Z,9.83
2019-03-21T07:05:13.713Z,10.60
2019-03-21T07:07:44.164Z,11.63
2019-03-21T07:10:14.622Z,11.87
2019-03-21T07:12:45.593Z,10.50
2019-03-21T07:15:15.908Z,9.93
2019-03-21T07:17:46.228Z,9.63
2019-03-21T07:25:15.412Z,9.50
2019-03-21T07:30:15.285Z,9.03
2019-03-21T07:32:45.605Z,9.37
2019-03-21T07:35:16.309Z,9.30
2019-03-21T07:37:46.828Z,8.70
2019-03-21T07:47:45.519Z,8.70
2019-03-21T07:50:16.214Z,7.50
2019-03-21T07:55:16.091Z,7.70
2019-03-21T07:57:46.840Z,7.83
2019-03-21T08:00:17.263Z,9.10
2019-03-21T08:02:47.656Z,8.00
2019-03-21T08:05:19.194Z,8.83
2019-03-21T08:07:50.002Z,8.30
2019-03-21T08:10:20.429Z,8.63
2019-03-21T08:12:50.696Z,8.17
2019-03-21T08:15:20.946Z,9.43
2019-03-21T08:17:52.624Z,7.53
2019-03-21T08:20:22.979Z,8.70
2019-03-21T08:22:53.246Z,8.20
2019-03-21T08:25:23.994Z,7.70
2019-03-21T08:27:54.574Z,8.30
2019-03-21T08:30:37.173Z,8.10
2019-03-21T08:33:07.759Z,8.70
2019-03-21T08:35:38.126Z,9.00
2019-03-21T08:38:08.456Z,8.23
2019-03-21T08:40:39.145Z,8.03
2019-03-21T08:43:09.530Z,7.93
2019-03-21T08:53:06.216Z,7.10
2019-03-21T09:00:34.494Z,8.40
2019-03-21T09:05:31.924Z,7.60
2019-03-21T09:08:01.215Z,7.50
2019-03-21T09:10:30.799Z,8.13
2019-03-21T09:13:00.213Z,7.90
2019-03-21T09:15:29.826Z,8.13
2019-03-21T09:32:47.557Z,6.40
2019-03-21T09:35:16.923Z,6.90
2019-03-21T09:40:52.191Z,6.80
2019-03-21T09:43:21.706Z,6.90
2019-03-21T09:45:51.007Z,6.20
2019-03-21T09:48:20.426Z,6.80
2019-03-21T09:50:50.144Z,6.87
2019-03-21T09:53:19.624Z,7.17
2019-03-21T09:55:48.994Z,6.80
2019-03-21T09:58:18.323Z,7.83
2019-03-21T10:00:47.831Z,8.90
2019-03-21T10:03:17.230Z,10.10
2019-03-21T10:05:46.735Z,11.37
2019-03-21T10:08:16.063Z,11.60
2019-03-21T10:10:45.218Z,12.30
2019-03-21T10:13:14.641Z,10.80
2019-03-21T10:15:44.032Z,11.07
2019-03-21T10:18:15.146Z,10.87
2019-03-21T10:20:44.452Z,10.97
2019-03-21T10:23:14.184Z,9.73
2019-03-21T10:25:43.560Z,11.17
2019-03-21T10:28:13.064Z,10.67
2019-03-21T10:30:42.887Z,11.30
2019-03-21T10:33:13.063Z,12.60
2019-03-21T10:35:42.697Z,12.17
2019-03-21T10:38:12.090Z,12.50
2019-03-21T10:40:41.962Z,11.70
2019-03-21T10:43:11.597Z,13.50
2019-03-21T10:45:41.921Z,13.63
2019-03-21T10:48:11.573Z,12.47
2019-03-21T10:50:41.419Z,11.83
2019-03-21T10:53:11.200Z,14.30
2019-03-21T10:55:40.796Z,14.37
2019-03-21T10:58:10.463Z,13.30
2019-03-21T11:00:39.887Z,11.97
2019-03-21T11:03:09.282Z,12.47
2019-03-21T11:05:38.726Z,14.97
2019-03-21T11:08:08.193Z,12.50
2019-03-21T11:10:37.541Z,12.77
2019-03-21T11:13:11.217Z,11.77
2019-03-21T11:15:40.509Z,12.33
2019-03-21T11:18:10.218Z,9.20
2019-03-21T11:20:40.231Z,11.07
2019-03-21T11:23:09.828Z,17.43
2019-03-21T11:25:39.453Z,11.80
2019-03-21T11:28:09.166Z,10.13
2019-03-21T11:30:39.454Z,11.60
2019-03-21T11:33:08.958Z,13.20
2019-03-21T11:35:38.472Z,11.27
2019-03-21T11:38:07.873Z,10.23
2019-03-21T11:40:37.470Z,10.60
2019-03-21T11:43:08.439Z,10.00
2019-03-21T11:45:37.834Z,11.67
2019-03-21T11:48:07.677Z,10.63
2019-03-21T11:50:37.137Z,11.10
2019-03-21T11:53:06.339Z,11.70
2019-03-21T11:55:36.196Z,10.67
2019-03-21T11:58:05.633Z,13.93
2019-03-21T12:00:43.099Z,10.00
2019-03-21T12:03:05.978Z,9.87
2019-03-21T12:05:35.238Z,10.67
2019-03-21T12:08:04.776Z,10.63
2019-03-21T12:10:34.093Z,11.67
2019-03-21T12:13:03.418Z,10.73
2019-03-21T12:15:33.208Z,11.07
2019-03-21T12:18:02.482Z,10.30
2019-03-21T12:20:33.088Z,10.13
2019-03-21T12:23:03.037Z,11.90
2019-03-21T12:25:32.322Z,11.10
2019-03-21T12:28:01.811Z,10.87
2019-03-21T12:30:32.077Z,9.63
2019-03-21T12:33:01.457Z,8.90
2019-03-21T12:35:30.807Z,9.67
2019-03-21T12:38:00.585Z,7.10
2019-03-21T12:40:29.964Z,5.20
2019-03-21T12:42:59.360Z,5.57
2019-03-21T12:45:29.167Z,8.50
2019-03-21T12:48:00.287Z,7.90
2019-03-21T12:50:31.718Z,8.73
2019-03-21T12:53:01.399Z,8.30
2019-03-21T12:55:31.244Z,7.70
2019-03-21T12:58:00.937Z,8.57
2019-03-21T13:00:37.558Z,9.10
2019-03-21T13:03:06.880Z,9.63
2019-03-21T13:05:36.157Z,8.80
2019-03-21T13:08:05.759Z,8.90
2019-03-21T13:10:35.272Z,8.50
2019-03-21T13:13:05.222Z,8.53
2019-03-21T13:15:34.652Z,9.00
2019-03-21T13:18:04.196Z,8.77
2019-03-21T13:20:33.735Z,8.70
2019-03-21T13:23:03.047Z,9.40
2019-03-21T13:25:32.761Z,9.17
2019-03-21T13:28:02.437Z,8.70
2019-03-21T13:30:31.807Z,8.17
2019-03-21T13:33:01.137Z,7.10
2019-03-21T13:35:32.979Z,7.83
2019-03-21T13:38:01.553Z,9.10
2019-03-21T13:40:30.876Z,8.53
2019-03-21T13:43:00.475Z,9.20
2019-03-21T13:45:29.909Z,6.90
2019-03-21T13:47:59.365Z,7.20
2019-03-21T13:50:28.972Z,8.50
2019-03-21T13:53:04.697Z,7.33
2019-03-21T13:55:30.434Z,7.53
2019-03-21T13:57:59.704Z,8.13
2019-03-21T14:00:29.125Z,8.30
2019-03-21T14:02:58.432Z,7.40
2019-03-21T14:05:27.859Z,7.53
2019-03-21T14:07:57.027Z,7.33
2019-03-21T14:10:26.458Z,7.03
2019-03-21T14:12:56.041Z,7.53
2019-03-21T14:15:25.340Z,6.97
2019-03-21T14:17:54.832Z,7.73
2019-03-21T14:20:24.236Z,7.50
2019-03-21T14:22:53.565Z,8.20
2019-03-21T14:25:23.174Z,6.60
2019-03-21T14:27:52.758Z,7.60
2019-03-21T14:30:22.151Z,6.33
2019-03-21T14:32:51.780Z,7.07
2019-03-21T14:35:21.255Z,6.80
2019-03-21T14:37:50.580Z,7.10
2019-03-21T14:40:20.073Z,7.10
2019-03-21T14:42:49.391Z,6.23
2019-03-21T14:45:18.784Z,6.90
2019-03-21T14:47:48.206Z,6.57
2019-03-21T14:50:17.763Z,6.00
2019-03-21T14:52:47.355Z,7.33
2019-03-21T14:55:16.807Z,6.57
2019-03-21T14:57:46.482Z,6.03
2019-03-21T15:00:16.724Z,6.70
2019-03-21T15:02:46.539Z,6.00
2019-03-21T15:05:16.302Z,5.63
2019-03-21T15:07:45.511Z,6.27
2019-03-21T15:10:15.355Z,6.80
2019-03-21T15:12:44.976Z,7.40
2019-03-21T15:15:14.750Z,6.43
2019-03-21T15:17:44.457Z,7.67
2019-03-21T15:20:14.217Z,6.60
2019-03-21T15:22:43.906Z,6.13
2019-03-21T15:25:13.840Z,6.13
2019-03-21T15:27:43.181Z,6.50
2019-03-21T15:30:16.701Z,7.87
2019-03-21T15:32:46.472Z,8.00
2019-03-21T15:35:16.014Z,8.87
2019-03-21T15:37:45.179Z,9.10
2019-03-21T15:40:14.421Z,9.10
2019-03-21T15:42:43.689Z,9.27
2019-03-21T15:45:22.334Z,11.57
2019-03-21T15:47:45.123Z,11.23
2019-03-21T15:50:48.988Z,10.40
2019-03-21T15:53:18.660Z,11.40
2019-03-21T15:55:47.985Z,11.10
2019-03-21T15:58:17.270Z,11.97
2019-03-21T16:00:46.685Z,11.17
2019-03-21T16:03:15.858Z,8.90
2019-03-21T16:05:45.273Z,10.40
2019-03-21T16:08:14.567Z,10.77
2019-03-21T16:10:44.274Z,11.63
2019-03-21T16:13:14.187Z,10.43
2019-03-21T16:15:43.515Z,8.70
2019-03-21T16:18:13.739Z,10.27
2019-03-21T16:20:43.015Z,10.13
2019-03-21T16:23:12.543Z,10.03
2019-03-21T16:25:42.147Z,8.27
2019-03-21T16:28:11.740Z,9.43
2019-03-21T16:30:41.230Z,9.63
2019-03-21T16:33:10.520Z,11.27
2019-03-21T16:35:40.102Z,11.33
2019-03-21T16:38:09.349Z,10.23
2019-03-21T16:40:38.544Z,9.93
2019-03-21T16:43:07.724Z,10.47
2019-03-21T16:45:36.997Z,10.40
2019-03-21T16:48:08.941Z,9.30
2019-03-21T16:50:37.665Z,10.50
2019-03-21T16:53:06.967Z,11.20
2019-03-21T16:55:36.176Z,10.63
2019-03-21T16:58:05.558Z,11.20
2019-03-21T17:00:34.871Z,11.60
2019-03-21T17:03:04.874Z,11.57
2019-03-21T17:05:34.063Z,10.83
2019-03-21T17:08:11.093Z,11.73
2019-03-21T17:10:34.187Z,11.27
2019-03-21T17:13:04.605Z,11.63
2019-03-21T17:15:34.395Z,11.70
2019-03-21T17:18:03.659Z,11.53
2019-03-21T17:20:33.561Z,11.03
2019-03-21T17:23:03.287Z,10.80
2019-03-21T17:25:32.553Z,12.00
2019-03-21T17:28:01.894Z,11.70
2019-03-21T17:30:31.305Z,11.00
2019-03-21T17:33:00.692Z,9.70
2019-03-21T17:35:29.878Z,10.40
2019-03-21T17:37:59.082Z,9.77
2019-03-21T17:40:28.703Z,10.27
2019-03-21T17:42:58.069Z,11.53
2019-03-21T17:45:27.459Z,8.67
2019-03-21T17:47:56.895Z,8.73
2019-03-21T17:50:26.437Z,8.30
2019-03-21T17:52:55.707Z,7.60
2019-03-21T17:55:25.677Z,9.30
2019-03-21T17:57:54.992Z,8.60
2019-03-21T18:00:25.043Z,6.73
2019-03-21T18:02:54.694Z,9.50
2019-03-21T18:05:24.101Z,10.57
2019-03-21T18:07:53.426Z,11.93
2019-03-21T18:10:30.015Z,10.23
2019-03-21T18:12:59.815Z,9.53
2019-03-21T18:15:29.656Z,10.57
2019-03-21T18:17:59.129Z,12.10
2019-03-21T18:20:28.399Z,11.40
2019-03-21T18:22:58.016Z,10.50
2019-03-21T18:25:27.297Z,11.80
2019-03-21T18:27:56.615Z,14.13
2019-03-21T18:30:26.306Z,13.27
2019-03-21T18:32:55.521Z,13.23
2019-03-21T18:35:24.797Z,13.70
2019-03-21T18:37:54.103Z,11.83
2019-03-21T18:40:23.346Z,18.40
2019-03-21T18:42:52.693Z,16.47
2019-03-21T18:45:21.993Z,15.27
2019-03-21T18:47:51.418Z,15.73
2019-03-21T18:50:20.731Z,19.67
2019-03-21T18:52:51.102Z,12.70
2019-03-21T18:55:20.661Z,14.90
2019-03-21T18:57:50.429Z,14.23
2019-03-21T19:00:19.830Z,14.33
2019-03-21T19:02:49.347Z,12.57
2019-03-21T19:05:18.489Z,14.80
2019-03-21T19:07:47.929Z,16.40
2019-03-21T19:10:17.227Z,14.73
2019-03-21T19:12:46.432Z,14.73
2019-03-21T19:15:15.751Z,13.37
2019-03-21T19:17:45.992Z,13.53
2019-03-21T19:20:15.665Z,13.60
2019-03-21T19:22:46.011Z,17.40
2019-03-21T19:25:19.672Z,21.20
2019-03-21T19:27:49.334Z,21.67
2019-03-21T19:30:20.632Z,16.80
2019-03-21T19:32:51.955Z,17.70
2019-03-21T19:35:22.470Z,14.43
2019-03-21T19:37:53.053Z,17.53
2019-03-21T19:40:23.819Z,13.83
2019-03-21T19:42:54.502Z,16.50
2019-03-21T19:45:24.146Z,20.27
2019-03-21T19:47:53.509Z,15.73
2019-03-21T19:50:22.918Z,18.27
2019-03-21T19:52:52.240Z,16.30
2019-03-21T19:55:30.644Z,16.37
2019-03-21T19:57:53.869Z,16.90
2019-03-21T20:00:24.199Z,18.33
2019-03-21T20:02:54.819Z,19.23
2019-03-21T20:05:25.468Z,21.43
2019-03-21T20:07:55.923Z,20.17
2019-03-21T20:10:26.790Z,19.07
2019-03-21T20:12:57.457Z,20.60
2019-03-21T20:15:27.639Z,22.70
2019-03-21T20:17:57.936Z,19.00
2019-03-21T20:20:30.899Z,22.80
2019-03-21T20:23:00.327Z,20.37
2019-03-21T20:25:41.904Z,20.87
2019-03-21T20:28:02.959Z,22.90
2019-03-21T20:30:33.657Z,21.23
2019-03-21T20:33:04.478Z,22.97
2019-03-21T20:35:35.279Z,23.23
2019-03-21T20:38:05.712Z,22.93
2019-03-21T20:40:35.913Z,23.70
2019-03-21T20:43:06.575Z,22.20
2019-03-21T20:45:36.988Z,26.77
2019-03-21T20:48:07.622Z,24.97
2019-03-21T20:50:37.931Z,25.73
2019-03-21T20:53:08.305Z,25.67
2019-03-21T20:55:38.674Z,24.23
2019-03-21T20:58:09.191Z,22.37
2019-03-21T21:00:40.245Z,27.23
2019-03-21T21:03:11.030Z,21.30
2019-03-21T21:05:41.953Z,22.67
2019-03-21T21:08:13.283Z,27.10
2019-03-21T21:10:44.102Z,18.70
2019-03-21T21:13:14.703Z,20.90
2019-03-21T21:15:45.001Z,21.97
2019-03-21T21:18:15.251Z,27.83
2019-03-21T21:20:45.634Z,27.70
2019-03-21T21:23:16.303Z,28.43
2019-03-21T21:25:46.856Z,26.97
2019-03-21T21:28:17.315Z,29.87
2019-03-21T21:30:47.987Z,29.07
2019-03-21T21:33:18.487Z,25.00
2019-03-21T21:35:48.854Z,29.50
2019-03-21T21:38:19.113Z,31.13
2019-03-21T21:40:49.504Z,32.03
2019-03-21T21:43:19.858Z,33.50
2019-03-21T21:45:50.599Z,32.10
2019-03-21T21:48:21.131Z,28.50
2019-03-21T21:50:51.526Z,30.47
2019-03-21T21:53:22.167Z,29.37
2019-03-21T21:55:52.590Z,31.10
2019-03-21T21:58:22.983Z,31.40
2019-03-21T22:00:53.400Z,33.00
2019-03-21T22:03:23.691Z,31.30
2019-03-21T22:05:54.511Z,30.90
2019-03-21T22:08:25.323Z,30.57
2019-03-21T22:10:56.096Z,28.47
2019-03-21T22:13:26.752Z,30.37
2019-03-21T22:15:57.629Z,33.63
2019-03-21T22:18:27.936Z,31.20
2019-03-21T22:20:58.265Z,35.00
2019-03-21T22:23:28.717Z,30.03
2019-03-21T22:25:59.252Z,28.57
2019-03-21T22:28:29.629Z,28.50
2019-03-21T22:31:00.087Z,28.30
2019-03-21T22:33:30.950Z,27.70
2019-03-21T22:36:01.449Z,30.17
2019-03-21T22:38:32.999Z,28.73
2019-03-21T22:41:03.334Z,28.63
2019-03-21T22:43:34.418Z,29.17
2019-03-21T22:46:05.607Z,28.70
2019-03-21T22:48:36.408Z,27.97
2019-03-21T22:51:07.070Z,24.80
2019-03-21T22:53:37.507Z,24.90
2019-03-21T22:56:08.207Z,26.53
2019-03-21T22:58:38.483Z,25.60
2019-03-21T23:01:08.732Z,26.50
2019-03-21T23:03:39.004Z,27.17
2019-03-21T23:06:09.297Z,28.33
2019-03-21T23:08:39.656Z,29.07
2019-03-21T23:11:10.212Z,31.17
2019-03-21T23:13:40.788Z,36.10
2019-03-21T23:16:11.154Z,32.10
2019-03-21T23:18:41.464Z,30.37
2019-03-21T23:21:12.845Z,29.23
2019-03-21T23:23:43.519Z,28.97
2019-03-21T23:26:14.136Z,34.50
2019-03-21T23:28:45.424Z,32.57
2019-03-21T23:31:16.116Z,35.47
2019-03-21T23:33:46.540Z,33.07
2019-03-21T23:36:17.562Z,29.43
2019-03-21T23:38:48.038Z,29.60
2019-03-21T23:41:19.068Z,28.67
2019-03-21T23:43:50.210Z,30.40
2019-03-21T23:46:20.575Z,27.50
2019-03-21T23:48:51.466Z,32.17
2019-03-21T23:51:21.792Z,33.10
2019-03-21T23:53:52.513Z,29.10
2019-03-21T23:56:22.830Z,29.80
2019-03-21T23:58:53.181Z,32.77
